sensor_id;sensor_type;location;lat;lon;timestamp;P1;durP1;ratioP1;P2;durP2;ratioP2
18893;SDS011;9579;49.488;8.226;2022-08-02T05:00:40;3.30;;;3.00;;
18893;SDS011;9579;49.488;8.226;2022-08-02T05:03:27;3.10;;;2.90;;
18893;SDS011;9579;49.488;8.226;2022-08-02T05:06:14;3.95;;;2.92;;
18893;SDS011;9579;49.488;8.226;2022-08-02T05:09:03;2.88;;;2.67;;
18893;SDS011;9579;49.488;8.226;2022-08-02T05:11:52;3.25;;;2.95;;
18893;SDS011;9579;49.488;8.226;2022-08-02T05:14:39;3.17;;;2.90;;
18893;SDS011;9579;49.488;8.226;2022-08-02T05:17:27;3.30;;;3.00;;
18893;SDS011;9579;49.488;8.226;2022-08-02T05:20:14;3.22;;;2.92;;
18893;SDS011;9579;49.488;8.226;2022-08-02T05:23:02;3.33;;;3.00;;
18893;SDS011;9579;49.488;8.226;2022-08-02T05:25:49;3.05;;;2.75;;
18893;SDS011;9579;49.488;8.226;2022-08-02T05:28:36;3.00;;;2.80;;
18893;SDS011;9579;49.488;8.226;2022-08-02T05:31:23;3.78;;;3.00;;
18893;SDS011;9579;49.488;8.226;2022-08-02T05:34:11;4.30;;;2.88;;
18893;SDS011;9579;49.488;8.226;2022-08-02T05:36:58;2.72;;;2.53;;
18893;SDS011;9579;49.488;8.226;2022-08-02T05:39:49;4.13;;;2.75;;
18893;SDS011;9579;49.488;8.226;2022-08-02T05:42:36;2.70;;;2.50;;
18893;SDS011;9579;49.488;8.226;2022-08-02T05:45:23;3.08;;;2.50;;
18893;SDS011;9579;49.488;8.226;2022-08-02T05:48:10;2.72;;;2.50;;
18893;SDS011;9579;49.488;8.226;2022-08-02T05:51:00;2.80;;;2.60;;
18893;SDS011;9579;49.488;8.226;2022-08-02T05:53:50;2.50;;;2.30;;
18893;SDS011;9579;49.488;8.226;2022-08-02T05:56:44;2.70;;;2.50;;
18893;SDS011;9579;49.488;8.226;2022-08-02T05:59:36;2.30;;;2.20;;
18893;SDS011;9579;49.488;8.226;2022-08-02T06:02:36;2.53;;;2.30;;
18893;SDS011;9579;49.488;8.226;2022-08-02T06:05:39;2.50;;;2.30;;
18893;SDS011;9579;49.488;8.226;2022-08-02T06:08:31;2.75;;;2.38;;
18893;SDS011;9579;49.488;8.226;2022-08-02T06:11:23;2.50;;;2.30;;
18893;SDS011;9579;49.488;8.226;2022-08-02T06:14:19;2.20;;;2.10;;
18893;SDS011;9579;49.488;8.226;2022-08-02T06:17:07;2.20;;;2.05;;
18893;SDS011;9579;49.488;8.226;2022-08-02T06:19:54;2.60;;;2.40;;
18893;SDS011;9579;49.488;8.226;2022-08-02T06:22:43;2.47;;;2.25;;
18893;SDS011;9579;49.488;8.226;2022-08-02T06:25:32;2.30;;;2.17;;
18893;SDS011;9579;49.488;8.226;2022-08-02T06:28:20;2.92;;;2.20;;
18893;SDS011;9579;49.488;8.226;2022-08-02T06:31:08;2.75;;;2.42;;
18893;SDS011;9579;49.488;8.226;2022-08-02T06:33:56;2.33;;;2.08;;
18893;SDS011;9579;49.488;8.226;2022-08-02T06:36:46;2.58;;;2.38;;
18893;SDS011;9579;49.488;8.226;2022-08-02T06:39:43;2.10;;;2.00;;
18893;SDS011;9579;49.488;8.226;2022-08-02T06:42:36;2.95;;;2.20;;
18893;SDS011;9579;49.488;8.226;2022-08-02T06:45:30;2.20;;;2.10;;
18893;SDS011;9579;49.488;8.226;2022-08-02T06:48:17;2.50;;;2.30;;
18893;SDS011;9579;49.488;8.226;2022-08-02T06:51:05;3.00;;;2.22;;
18893;SDS011;9579;49.488;8.226;2022-08-02T06:53:52;2.25;;;2.03;;
18893;SDS011;9579;49.488;8.226;2022-08-02T06:56:39;2.15;;;2.00;;
18893;SDS011;9579;49.488;8.226;2022-08-02T06:59:28;2.50;;;2.30;;
18893;SDS011;9579;49.488;8.226;2022-08-02T07:02:15;2.30;;;2.20;;
18893;SDS011;9579;49.488;8.226;2022-08-02T07:05:03;2.28;;;2.17;;
18893;SDS011;9579;49.488;8.226;2022-08-02T07:07:51;3.17;;;2.88;;
18893;SDS011;9579;49.488;8.226;2022-08-02T07:10:38;2.53;;;2.33;;
18893;SDS011;9579;49.488;8.226;2022-08-02T07:13:25;2.40;;;2.20;;
18893;SDS011;9579;49.488;8.226;2022-08-02T07:16:14;2.45;;;2.35;;
18893;SDS011;9579;49.488;8.226;2022-08-02T07:19:01;2.38;;;2.17;;
18893;SDS011;9579;49.488;8.226;2022-08-02T07:21:48;2.30;;;2.10;;
18893;SDS011;9579;49.488;8.226;2022-08-02T07:24:35;3.47;;;2.08;;
18893;SDS011;9579;49.488;8.226;2022-08-02T07:27:22;2.38;;;2.20;;
18893;SDS011;9579;49.488;8.226;2022-08-02T07:30:10;2.47;;;2.10;;
18893;SDS011;9579;49.488;8.226;2022-08-02T07:32:59;2.20;;;2.00;;
18893;SDS011;9579;49.488;8.226;2022-08-02T07:35:46;1.90;;;1.80;;
18893;SDS011;9579;49.488;8.226;2022-08-02T07:38:33;2.35;;;2.25;;
18893;SDS011;9579;49.488;8.226;2022-08-02T07:41:20;2.28;;;2.08;;
18893;SDS011;9579;49.488;8.226;2022-08-02T07:44:07;2.25;;;2.05;;
18893;SDS011;9579;49.488;8.226;2022-08-02T07:46:54;3.08;;;2.22;;
18893;SDS011;9579;49.488;8.226;2022-08-02T07:49:42;1.95;;;1.85;;
18893;SDS011;9579;49.488;8.226;2022-08-02T07:52:29;2.35;;;2.08;;
18893;SDS011;9579;49.488;8.226;2022-08-02T07:55:17;2.72;;;2.08;;
18893;SDS011;9579;49.488;8.226;2022-08-02T07:58:04;3.42;;;2.13;;
18893;SDS011;9579;49.488;8.226;2022-08-02T08:00:51;2.40;;;2.20;;
18893;SDS011;9579;49.488;8.226;2022-08-02T08:03:39;1.95;;;1.85;;
18893;SDS011;9579;49.488;8.226;2022-08-02T08:06:27;2.75;;;1.85;;
18893;SDS011;9579;49.488;8.226;2022-08-02T08:09:15;1.92;;;1.70;;
18893;SDS011;9579;49.488;8.226;2022-08-02T08:12:02;2.05;;;1.80;;
18893;SDS011;9579;49.488;8.226;2022-08-02T08:14:50;1.83;;;1.73;;
18893;SDS011;9579;49.488;8.226;2022-08-02T08:17:37;3.42;;;2.00;;
18893;SDS011;9579;49.488;8.226;2022-08-02T08:20:24;2.72;;;2.00;;
18893;SDS011;9579;49.488;8.226;2022-08-02T08:23:12;2.00;;;1.80;;
18893;SDS011;9579;49.488;8.226;2022-08-02T08:25:59;2.35;;;1.60;;
18893;SDS011;9579;49.488;8.226;2022-08-02T08:28:46;1.95;;;1.85;;
18893;SDS011;9579;49.488;8.226;2022-08-02T08:31:33;1.80;;;1.70;;
18893;SDS011;9579;49.488;8.226;2022-08-02T08:34:20;1.85;;;1.75;;
18893;SDS011;9579;49.488;8.226;2022-08-02T08:37:08;2.10;;;1.75;;
18893;SDS011;9579;49.488;8.226;2022-08-02T08:39:56;2.67;;;1.80;;
18893;SDS011;9579;49.488;8.226;2022-08-02T08:42:44;2.45;;;1.95;;
18893;SDS011;9579;49.488;8.226;2022-08-02T08:45:31;1.77;;;1.67;;
18893;SDS011;9579;49.488;8.226;2022-08-02T08:48:18;2.22;;;1.83;;
18893;SDS011;9579;49.488;8.226;2022-08-02T08:51:10;1.67;;;1.58;;
18893;SDS011;9579;49.488;8.226;2022-08-02T08:54:01;1.60;;;1.50;;
18893;SDS011;9579;49.488;8.226;2022-08-02T08:56:50;3.20;;;1.77;;
18893;SDS011;9579;49.488;8.226;2022-08-02T08:59:39;1.80;;;1.70;;
18893;SDS011;9579;49.488;8.226;2022-08-02T09:02:26;1.85;;;1.58;;
18893;SDS011;9579;49.488;8.226;2022-08-02T09:05:14;2.17;;;1.73;;
18893;SDS011;9579;49.488;8.226;2022-08-02T09:08:02;1.65;;;1.50;;
18893;SDS011;9579;49.488;8.226;2022-08-02T09:10:50;1.77;;;1.67;;
18893;SDS011;9579;49.488;8.226;2022-08-02T09:13:39;2.00;;;1.50;;
18893;SDS011;9579;49.488;8.226;2022-08-02T09:16:35;1.70;;;1.60;;
18893;SDS011;9579;49.488;8.226;2022-08-02T09:19:25;3.00;;;1.83;;
18893;SDS011;9579;49.488;8.226;2022-08-02T09:22:13;3.63;;;1.65;;
18893;SDS011;9579;49.488;8.226;2022-08-02T09:25:00;1.60;;;1.50;;
18893;SDS011;9579;49.488;8.226;2022-08-02T09:27:47;1.98;;;1.60;;
18893;SDS011;9579;49.488;8.226;2022-08-02T09:30:42;1.80;;;1.70;;
18893;SDS011;9579;49.488;8.226;2022-08-02T09:33:29;1.63;;;1.52;;
18893;SDS011;9579;49.488;8.226;2022-08-02T09:36:16;1.90;;;1.70;;
18893;SDS011;9579;49.488;8.226;2022-08-02T09:39:04;1.77;;;1.50;;
18893;SDS011;9579;49.488;8.226;2022-08-02T09:41:52;1.65;;;1.40;;
18893;SDS011;9579;49.488;8.226;2022-08-02T09:44:55;1.45;;;1.38;;
18893;SDS011;9579;49.488;8.226;2022-08-02T09:47:45;2.40;;;1.75;;
18893;SDS011;9579;49.488;8.226;2022-08-02T09:50:34;1.77;;;1.60;;
18893;SDS011;9579;49.488;8.226;2022-08-02T09:53:22;1.67;;;1.58;;
18893;SDS011;9579;49.488;8.226;2022-08-02T09:56:09;1.88;;;1.70;;
18893;SDS011;9579;49.488;8.226;2022-08-02T09:58:56;1.90;;;1.80;;
18893;SDS011;9579;49.488;8.226;2022-08-02T10:01:44;1.60;;;1.50;;
18893;SDS011;9579;49.488;8.226;2022-08-02T10:04:34;1.77;;;1.67;;
18893;SDS011;9579;49.488;8.226;2022-08-02T10:07:21;1.67;;;1.58;;
18893;SDS011;9579;49.488;8.226;2022-08-02T10:10:09;2.00;;;1.90;;
18893;SDS011;9579;49.488;8.226;2022-08-02T10:12:56;1.60;;;1.50;;
18893;SDS011;9579;49.488;8.226;2022-08-02T10:15:43;1.60;;;1.50;;
18893;SDS011;9579;49.488;8.226;2022-08-02T10:18:30;1.80;;;1.70;;
18893;SDS011;9579;49.488;8.226;2022-08-02T10:21:21;1.80;;;1.70;;
18893;SDS011;9579;49.488;8.226;2022-08-02T10:24:14;1.80;;;1.70;;
18893;SDS011;9579;49.488;8.226;2022-08-02T10:27:03;1.85;;;1.75;;
18893;SDS011;9579;49.488;8.226;2022-08-02T10:29:52;1.58;;;1.48;;
18893;SDS011;9579;49.488;8.226;2022-08-02T10:32:43;1.60;;;1.50;;
18893;SDS011;9579;49.488;8.226;2022-08-02T10:35:31;1.63;;;1.40;;
18893;SDS011;9579;49.488;8.226;2022-08-02T10:41:39;1.55;;;1.50;;
18893;SDS011;9579;49.488;8.226;2022-08-02T10:44:31;1.92;;;1.75;;
18893;SDS011;9579;49.488;8.226;2022-08-02T10:47:23;1.73;;;1.60;;
18893;SDS011;9579;49.488;8.226;2022-08-02T10:50:12;1.55;;;1.50;;
18893;SDS011;9579;49.488;8.226;2022-08-02T10:56:07;1.67;;;1.58;;
18893;SDS011;9579;49.488;8.226;2022-08-02T10:59:22;1.67;;;1.58;;
18893;SDS011;9579;49.488;8.226;2022-08-02T11:02:11;1.60;;;1.50;;
18893;SDS011;9579;49.488;8.226;2022-08-02T11:04:59;1.50;;;1.40;;
18893;SDS011;9579;49.488;8.226;2022-08-02T11:07:48;1.90;;;1.70;;
18893;SDS011;9579;49.488;8.226;2022-08-02T11:10:36;1.70;;;1.60;;
18893;SDS011;9579;49.488;8.226;2022-08-02T11:13:26;1.38;;;1.30;;
18893;SDS011;9579;49.488;8.226;2022-08-02T11:16:14;1.60;;;1.50;;
18893;SDS011;9579;49.488;8.226;2022-08-02T11:19:02;1.92;;;1.60;;
18893;SDS011;9579;49.488;8.226;2022-08-02T11:21:58;2.08;;;1.75;;
18893;SDS011;9579;49.488;8.226;2022-08-02T11:24:55;2.08;;;1.58;;
18893;SDS011;9579;49.488;8.226;2022-08-02T11:27:42;1.83;;;1.58;;
18893;SDS011;9579;49.488;8.226;2022-08-02T11:30:30;1.73;;;1.50;;
18893;SDS011;9579;49.488;8.226;2022-08-02T11:33:18;1.67;;;1.58;;
18893;SDS011;9579;49.488;8.226;2022-08-02T11:36:05;1.38;;;1.38;;
18893;SDS011;9579;49.488;8.226;2022-08-02T11:39:06;1.85;;;1.75;;
18893;SDS011;9579;49.488;8.226;2022-08-02T11:41:55;1.55;;;1.45;;
18893;SDS011;9579;49.488;8.226;2022-08-02T11:44:43;1.80;;;1.60;;
18893;SDS011;9579;49.488;8.226;2022-08-02T11:47:32;1.75;;;1.40;;
18893;SDS011;9579;49.488;8.226;2022-08-02T11:50:20;2.15;;;1.40;;
18893;SDS011;9579;49.488;8.226;2022-08-02T11:53:12;1.67;;;1.40;;
18893;SDS011;9579;49.488;8.226;2022-08-02T11:56:00;1.45;;;1.40;;
18893;SDS011;9579;49.488;8.226;2022-08-02T11:59:03;1.73;;;1.60;;
18893;SDS011;9579;49.488;8.226;2022-08-02T12:01:52;1.60;;;1.50;;
18893;SDS011;9579;49.488;8.226;2022-08-02T12:04:43;2.28;;;1.70;;
18893;SDS011;9579;49.488;8.226;2022-08-02T12:07:38;1.60;;;1.50;;
18893;SDS011;9579;49.488;8.226;2022-08-02T12:10:25;1.60;;;1.50;;
18893;SDS011;9579;49.488;8.226;2022-08-02T12:13:12;1.73;;;1.60;;
18893;SDS011;9579;49.488;8.226;2022-08-02T12:16:08;1.80;;;1.70;;
18893;SDS011;9579;49.488;8.226;2022-08-02T12:19:10;1.25;;;1.25;;
18893;SDS011;9579;49.488;8.226;2022-08-02T12:22:10;1.60;;;1.50;;
18893;SDS011;9579;49.488;8.226;2022-08-02T12:24:59;1.70;;;1.60;;
18893;SDS011;9579;49.488;8.226;2022-08-02T12:28:14;1.80;;;1.70;;
18893;SDS011;9579;49.488;8.226;2022-08-02T12:31:05;1.67;;;1.58;;
18893;SDS011;9579;49.488;8.226;2022-08-02T12:33:53;1.92;;;1.50;;
18893;SDS011;9579;49.488;8.226;2022-08-02T12:36:40;1.40;;;1.40;;
18893;SDS011;9579;49.488;8.226;2022-08-02T12:39:36;1.70;;;1.60;;
18893;SDS011;9579;49.488;8.226;2022-08-02T12:42:25;1.55;;;1.45;;
18893;SDS011;9579;49.488;8.226;2022-08-02T12:45:12;1.70;;;1.60;;
18893;SDS011;9579;49.488;8.226;2022-08-02T12:47:59;2.20;;;2.00;;
18893;SDS011;9579;49.488;8.226;2022-08-02T12:50:47;1.80;;;1.70;;
18893;SDS011;9579;49.488;8.226;2022-08-02T12:53:34;2.00;;;1.90;;
18893;SDS011;9579;49.488;8.226;2022-08-02T12:56:32;1.80;;;1.70;;
18893;SDS011;9579;49.488;8.226;2022-08-02T12:59:33;1.80;;;1.70;;
18893;SDS011;9579;49.488;8.226;2022-08-02T13:02:21;1.70;;;1.60;;
18893;SDS011;9579;49.488;8.226;2022-08-02T13:05:08;2.00;;;1.80;;
18893;SDS011;9579;49.488;8.226;2022-08-02T13:07:55;1.80;;;1.70;;
18893;SDS011;9579;49.488;8.226;2022-08-02T13:10:43;1.67;;;1.58;;
18893;SDS011;9579;49.488;8.226;2022-08-02T13:13:32;1.58;;;1.48;;
18893;SDS011;9579;49.488;8.226;2022-08-02T13:16:20;1.55;;;1.50;;
18893;SDS011;9579;49.488;8.226;2022-08-02T13:19:08;1.77;;;1.67;;
18893;SDS011;9579;49.488;8.226;2022-08-02T13:21:57;1.80;;;1.70;;
18893;SDS011;9579;49.488;8.226;2022-08-02T13:24:44;2.17;;;1.60;;
18893;SDS011;9579;49.488;8.226;2022-08-02T13:27:34;1.80;;;1.70;;
18893;SDS011;9579;49.488;8.226;2022-08-02T13:30:23;2.00;;;1.80;;
18893;SDS011;9579;49.488;8.226;2022-08-02T13:33:11;1.75;;;1.60;;
18893;SDS011;9579;49.488;8.226;2022-08-02T13:35:58;1.67;;;1.58;;
18893;SDS011;9579;49.488;8.226;2022-08-02T13:38:45;1.88;;;1.60;;
18893;SDS011;9579;49.488;8.226;2022-08-02T13:41:32;1.50;;;1.40;;
18893;SDS011;9579;49.488;8.226;2022-08-02T13:44:19;1.80;;;1.70;;
18893;SDS011;9579;49.488;8.226;2022-08-02T13:47:07;1.77;;;1.55;;
18893;SDS011;9579;49.488;8.226;2022-08-02T13:49:55;1.80;;;1.70;;
18893;SDS011;9579;49.488;8.226;2022-08-02T13:52:42;1.80;;;1.70;;
18893;SDS011;9579;49.488;8.226;2022-08-02T13:55:29;1.73;;;1.60;;
18893;SDS011;9579;49.488;8.226;2022-08-02T13:58:16;1.67;;;1.58;;
18893;SDS011;9579;49.488;8.226;2022-08-02T14:01:04;2.00;;;1.90;;
18893;SDS011;9579;49.488;8.226;2022-08-02T14:03:52;1.65;;;1.55;;
18893;SDS011;9579;49.488;8.226;2022-08-02T14:06:39;2.00;;;1.80;;
18893;SDS011;9579;49.488;8.226;2022-08-02T14:09:26;3.33;;;1.80;;
18893;SDS011;9579;49.488;8.226;2022-08-02T14:12:16;1.80;;;1.70;;
18893;SDS011;9579;49.488;8.226;2022-08-02T14:15:04;1.90;;;1.73;;
18893;SDS011;9579;49.488;8.226;2022-08-02T14:17:51;1.73;;;1.50;;
18893;SDS011;9579;49.488;8.226;2022-08-02T14:20:40;1.80;;;1.70;;
18893;SDS011;9579;49.488;8.226;2022-08-02T14:23:27;1.83;;;1.73;;
18893;SDS011;9579;49.488;8.226;2022-08-02T14:26:16;1.95;;;1.80;;
18893;SDS011;9579;49.488;8.226;2022-08-02T14:29:07;1.90;;;1.80;;
18893;SDS011;9579;49.488;8.226;2022-08-02T14:31:59;1.88;;;1.77;;
18893;SDS011;9579;49.488;8.226;2022-08-02T14:34:46;1.90;;;1.80;;
18893;SDS011;9579;49.488;8.226;2022-08-02T14:37:35;2.80;;;1.80;;
18893;SDS011;9579;49.488;8.226;2022-08-02T14:40:22;2.30;;;2.10;;
18893;SDS011;9579;49.488;8.226;2022-08-02T14:43:10;1.90;;;1.80;;
18893;SDS011;9579;49.488;8.226;2022-08-02T14:46:21;1.90;;;1.80;;
18893;SDS011;9579;49.488;8.226;2022-08-02T14:49:08;1.80;;;1.70;;
18893;SDS011;9579;49.488;8.226;2022-08-02T14:51:56;2.00;;;1.90;;
18893;SDS011;9579;49.488;8.226;2022-08-02T14:54:45;2.13;;;1.73;;
18893;SDS011;9579;49.488;8.226;2022-08-02T14:57:32;2.17;;;1.98;;
18893;SDS011;9579;49.488;8.226;2022-08-02T15:00:19;1.90;;;1.80;;
18893;SDS011;9579;49.488;8.226;2022-08-02T15:03:06;1.90;;;1.63;;
18893;SDS011;9579;49.488;8.226;2022-08-02T15:05:54;1.98;;;1.67;;
18893;SDS011;9579;49.488;8.226;2022-08-02T15:08:41;2.10;;;1.90;;
18893;SDS011;9579;49.488;8.226;2022-08-02T15:11:29;2.08;;;1.98;;
18893;SDS011;9579;49.488;8.226;2022-08-02T15:14:17;1.85;;;1.73;;
18893;SDS011;9579;49.488;8.226;2022-08-02T15:17:04;1.80;;;1.70;;
18893;SDS011;9579;49.488;8.226;2022-08-02T15:19:52;1.80;;;1.70;;
18893;SDS011;9579;49.488;8.226;2022-08-02T15:22:39;1.60;;;1.50;;
18893;SDS011;9579;49.488;8.226;2022-08-02T15:25:26;2.17;;;1.83;;
18893;SDS011;9579;49.488;8.226;2022-08-02T15:28:14;2.20;;;1.75;;
18893;SDS011;9579;49.488;8.226;2022-08-02T15:31:01;2.85;;;2.10;;
18893;SDS011;9579;49.488;8.226;2022-08-02T15:33:48;1.75;;;1.65;;
18893;SDS011;9579;49.488;8.226;2022-08-02T15:36:35;2.10;;;2.00;;
18893;SDS011;9579;49.488;8.226;2022-08-02T15:39:23;2.20;;;2.10;;
18893;SDS011;9579;49.488;8.226;2022-08-02T15:42:10;2.05;;;1.85;;
18893;SDS011;9579;49.488;8.226;2022-08-02T15:44:59;2.03;;;1.92;;
18893;SDS011;9579;49.488;8.226;2022-08-02T15:47:46;1.73;;;1.60;;
18893;SDS011;9579;49.488;8.226;2022-08-02T15:50:33;2.08;;;1.70;;
18893;SDS011;9579;49.488;8.226;2022-08-02T15:53:20;2.00;;;1.90;;
18893;SDS011;9579;49.488;8.226;2022-08-02T15:56:07;1.92;;;1.80;;
18893;SDS011;9579;49.488;8.226;2022-08-02T15:58:54;1.90;;;1.80;;
18893;SDS011;9579;49.488;8.226;2022-08-02T16:01:42;1.83;;;1.73;;
18893;SDS011;9579;49.488;8.226;2022-08-02T16:04:31;1.85;;;1.75;;
18893;SDS011;9579;49.488;8.226;2022-08-02T16:07:18;1.90;;;1.80;;
18893;SDS011;9579;49.488;8.226;2022-08-02T16:10:05;2.10;;;2.00;;
18893;SDS011;9579;49.488;8.226;2022-08-02T16:12:53;2.00;;;1.90;;
18893;SDS011;9579;49.488;8.226;2022-08-02T16:16:04;2.03;;;1.92;;
18893;SDS011;9579;49.488;8.226;2022-08-02T16:18:52;2.17;;;2.03;;
18893;SDS011;9579;49.488;8.226;2022-08-02T16:21:39;1.80;;;1.70;;
18893;SDS011;9579;49.488;8.226;2022-08-02T16:24:26;1.75;;;1.65;;
18893;SDS011;9579;49.488;8.226;2022-08-02T16:27:14;1.73;;;1.63;;
18893;SDS011;9579;49.488;8.226;2022-08-02T16:30:01;2.03;;;1.83;;
18893;SDS011;9579;49.488;8.226;2022-08-02T16:32:48;1.80;;;1.70;;
18893;SDS011;9579;49.488;8.226;2022-08-02T16:35:37;1.70;;;1.60;;
18893;SDS011;9579;49.488;8.226;2022-08-02T16:38:24;1.70;;;1.60;;
18893;SDS011;9579;49.488;8.226;2022-08-02T16:41:12;2.00;;;1.80;;
18893;SDS011;9579;49.488;8.226;2022-08-02T16:43:59;1.80;;;1.70;;
18893;SDS011;9579;49.488;8.226;2022-08-02T16:46:46;2.42;;;2.22;;
18893;SDS011;9579;49.488;8.226;2022-08-02T16:49:33;1.80;;;1.70;;
18893;SDS011;9579;49.488;8.226;2022-08-02T16:52:21;3.97;;;1.95;;
18893;SDS011;9579;49.488;8.226;2022-08-02T16:55:08;1.80;;;1.70;;
18893;SDS011;9579;49.488;8.226;2022-08-02T16:57:56;2.08;;;1.77;;
18893;SDS011;9579;49.488;8.226;2022-08-02T17:00:44;3.42;;;1.85;;
18893;SDS011;9579;49.488;8.226;2022-08-02T17:03:31;2.17;;;1.73;;
18893;SDS011;9579;49.488;8.226;2022-08-02T17:06:18;1.80;;;1.70;;
18893;SDS011;9579;49.488;8.226;2022-08-02T17:09:07;1.88;;;1.70;;
18893;SDS011;9579;49.488;8.226;2022-08-02T17:11:54;2.00;;;1.80;;
18893;SDS011;9579;49.488;8.226;2022-08-02T17:14:41;2.13;;;1.77;;
18893;SDS011;9579;49.488;8.226;2022-08-02T17:17:30;2.30;;;1.80;;
18893;SDS011;9579;49.488;8.226;2022-08-02T17:20:17;1.85;;;1.70;;
18893;SDS011;9579;49.488;8.226;2022-08-02T17:23:04;2.20;;;1.80;;
18893;SDS011;9579;49.488;8.226;2022-08-02T17:25:54;3.40;;;2.17;;
18893;SDS011;9579;49.488;8.226;2022-08-02T17:28:42;2.00;;;1.90;;
18893;SDS011;9579;49.488;8.226;2022-08-02T17:31:29;3.05;;;1.73;;
18893;SDS011;9579;49.488;8.226;2022-08-02T17:34:16;1.98;;;1.83;;
18893;SDS011;9579;49.488;8.226;2022-08-02T17:37:03;1.85;;;1.75;;
18893;SDS011;9579;49.488;8.226;2022-08-02T17:39:51;1.90;;;1.80;;
18893;SDS011;9579;49.488;8.226;2022-08-02T17:42:39;1.90;;;1.80;;
18893;SDS011;9579;49.488;8.226;2022-08-02T17:45:26;2.10;;;2.00;;
18893;SDS011;9579;49.488;8.226;2022-08-02T17:48:13;2.00;;;1.90;;
18893;SDS011;9579;49.488;8.226;2022-08-02T17:51:00;2.72;;;1.90;;
18893;SDS011;9579;49.488;8.226;2022-08-02T17:53:49;2.30;;;1.77;;
18893;SDS011;9579;49.488;8.226;2022-08-02T17:56:38;2.15;;;1.92;;
18893;SDS011;9579;49.488;8.226;2022-08-02T17:59:26;2.10;;;1.90;;
18893;SDS011;9579;49.488;8.226;2022-08-02T18:02:13;2.08;;;1.98;;
18893;SDS011;9579;49.488;8.226;2022-08-02T18:05:00;1.95;;;1.77;;
18893;SDS011;9579;49.488;8.226;2022-08-02T18:07:47;2.78;;;1.88;;
18893;SDS011;9579;49.488;8.226;2022-08-02T18:10:34;1.90;;;1.80;;
18893;SDS011;9579;49.488;8.226;2022-08-02T18:13:23;2.22;;;1.85;;
18893;SDS011;9579;49.488;8.226;2022-08-02T18:16:12;1.80;;;1.70;;
18893;SDS011;9579;49.488;8.226;2022-08-02T18:18:59;2.00;;;1.80;;
18893;SDS011;9579;49.488;8.226;2022-08-02T18:21:46;2.05;;;1.83;;
18893;SDS011;9579;49.488;8.226;2022-08-02T18:24:33;2.00;;;1.90;;
18893;SDS011;9579;49.488;8.226;2022-08-02T18:27:20;3.15;;;2.13;;
18893;SDS011;9579;49.488;8.226;2022-08-02T18:30:07;2.50;;;1.98;;
18893;SDS011;9579;49.488;8.226;2022-08-02T18:32:57;2.75;;;2.15;;
18893;SDS011;9579;49.488;8.226;2022-08-02T18:35:44;4.30;;;2.25;;
18893;SDS011;9579;49.488;8.226;2022-08-02T18:38:31;2.63;;;2.00;;
18893;SDS011;9579;49.488;8.226;2022-08-02T18:41:18;5.10;;;2.22;;
18893;SDS011;9579;49.488;8.226;2022-08-02T18:44:05;5.68;;;2.50;;
18893;SDS011;9579;49.488;8.226;2022-08-02T18:46:54;3.85;;;2.13;;
18893;SDS011;9579;49.488;8.226;2022-08-02T18:49:43;4.40;;;2.50;;
18893;SDS011;9579;49.488;8.226;2022-08-02T18:52:30;4.43;;;2.25;;
18893;SDS011;9579;49.488;8.226;2022-08-02T18:55:17;2.40;;;2.20;;
18893;SDS011;9579;49.488;8.226;2022-08-02T18:58:04;3.08;;;2.22;;
18893;SDS011;9579;49.488;8.226;2022-08-02T19:00:51;4.13;;;2.40;;
18893;SDS011;9579;49.488;8.226;2022-08-02T19:03:38;4.00;;;2.30;;
18893;SDS011;9579;49.488;8.226;2022-08-02T19:06:26;3.08;;;2.33;;
18893;SDS011;9579;49.488;8.226;2022-08-02T19:09:13;2.60;;;2.28;;
18893;SDS011;9579;49.488;8.226;2022-08-02T19:12:00;3.03;;;2.33;;
18893;SDS011;9579;49.488;8.226;2022-08-02T19:14:48;3.15;;;2.63;;
18893;SDS011;9579;49.488;8.226;2022-08-02T19:17:35;5.03;;;2.47;;
18893;SDS011;9579;49.488;8.226;2022-08-02T19:20:22;5.03;;;2.65;;
18893;SDS011;9579;49.488;8.226;2022-08-02T19:23:11;3.75;;;2.60;;
18893;SDS011;9579;49.488;8.226;2022-08-02T19:25:58;5.63;;;2.67;;
18893;SDS011;9579;49.488;8.226;2022-08-02T19:28:46;3.10;;;2.33;;
18893;SDS011;9579;49.488;8.226;2022-08-02T19:31:33;4.18;;;2.60;;
18893;SDS011;9579;49.488;8.226;2022-08-02T19:34:20;3.58;;;2.40;;
18893;SDS011;9579;49.488;8.226;2022-08-02T19:37:07;3.45;;;2.40;;
18893;SDS011;9579;49.488;8.226;2022-08-02T19:39:56;5.25;;;2.40;;
18893;SDS011;9579;49.488;8.226;2022-08-02T19:42:43;2.78;;;2.55;;
18893;SDS011;9579;49.488;8.226;2022-08-02T19:45:32;2.95;;;2.53;;
18893;SDS011;9579;49.488;8.226;2022-08-02T19:48:19;2.63;;;2.40;;
18893;SDS011;9579;49.488;8.226;2022-08-02T19:51:06;2.70;;;2.30;;
18893;SDS011;9579;49.488;8.226;2022-08-02T19:53:53;3.67;;;2.47;;
18893;SDS011;9579;49.488;8.226;2022-08-02T19:56:41;2.60;;;2.00;;
18893;SDS011;9579;49.488;8.226;2022-08-02T19:59:29;3.10;;;2.60;;
18893;SDS011;9579;49.488;8.226;2022-08-02T20:02:16;2.65;;;2.20;;
18893;SDS011;9579;49.488;8.226;2022-08-02T20:05:03;3.53;;;2.40;;
18893;SDS011;9579;49.488;8.226;2022-08-02T20:07:51;4.70;;;2.20;;
18893;SDS011;9579;49.488;8.226;2022-08-02T20:10:38;2.60;;;2.33;;
18893;SDS011;9579;49.488;8.226;2022-08-02T20:13:27;3.90;;;2.28;;
18893;SDS011;9579;49.488;8.226;2022-08-02T20:16:15;2.63;;;2.40;;
18893;SDS011;9579;49.488;8.226;2022-08-02T20:19:03;3.60;;;2.70;;
18893;SDS011;9579;49.488;8.226;2022-08-02T20:21:51;3.35;;;2.40;;
18893;SDS011;9579;49.488;8.226;2022-08-02T20:24:39;6.45;;;2.53;;
18893;SDS011;9579;49.488;8.226;2022-08-02T20:27:26;4.65;;;2.60;;
18893;SDS011;9579;49.488;8.226;2022-08-02T20:30:14;5.93;;;2.30;;
18893;SDS011;9579;49.488;8.226;2022-08-02T20:33:01;2.75;;;2.20;;
18893;SDS011;9579;49.488;8.226;2022-08-02T20:35:48;6.20;;;2.70;;
18893;SDS011;9579;49.488;8.226;2022-08-02T20:38:36;3.17;;;2.40;;
18893;SDS011;9579;49.488;8.226;2022-08-02T20:41:24;5.32;;;2.78;;
18893;SDS011;9579;49.488;8.226;2022-08-02T20:44:11;3.45;;;2.50;;
18893;SDS011;9579;49.488;8.226;2022-08-02T20:47:00;3.97;;;2.35;;
18893;SDS011;9579;49.488;8.226;2022-08-02T20:49:47;3.08;;;2.63;;
18893;SDS011;9579;49.488;8.226;2022-08-02T20:52:48;4.03;;;2.55;;
18893;SDS011;9579;49.488;8.226;2022-08-02T20:55:39;6.03;;;2.72;;
18893;SDS011;9579;49.488;8.226;2022-08-02T20:58:26;4.88;;;2.70;;
18893;SDS011;9579;49.488;8.226;2022-08-02T21:01:13;5.05;;;2.40;;
18893;SDS011;9579;49.488;8.226;2022-08-02T21:04:02;5.85;;;2.50;;
18893;SDS011;9579;49.488;8.226;2022-08-02T21:06:49;4.15;;;2.33;;
18893;SDS011;9579;49.488;8.226;2022-08-02T21:09:36;4.03;;;2.70;;
18893;SDS011;9579;49.488;8.226;2022-08-02T21:12:23;3.83;;;2.40;;
18893;SDS011;9579;49.488;8.226;2022-08-02T21:15:10;4.15;;;2.72;;
18893;SDS011;9579;49.488;8.226;2022-08-02T21:17:57;3.28;;;2.40;;
18893;SDS011;9579;49.488;8.226;2022-08-02T21:20:46;2.50;;;2.30;;
18893;SDS011;9579;49.488;8.226;2022-08-02T21:23:33;2.50;;;2.30;;
18893;SDS011;9579;49.488;8.226;2022-08-02T21:26:20;3.00;;;2.70;;
18893;SDS011;9579;49.488;8.226;2022-08-02T21:29:07;3.20;;;2.92;;
18893;SDS011;9579;49.488;8.226;2022-08-02T21:31:54;2.85;;;2.33;;
18893;SDS011;9579;49.488;8.226;2022-08-02T21:34:41;3.40;;;2.75;;
18893;SDS011;9579;49.488;8.226;2022-08-02T21:37:29;3.05;;;2.30;;
18893;SDS011;9579;49.488;8.226;2022-08-02T21:40:16;2.60;;;2.38;;
18893;SDS011;9579;49.488;8.226;2022-08-02T21:43:03;3.15;;;2.72;;
18893;SDS011;9579;49.488;8.226;2022-08-02T21:45:50;3.58;;;2.55;;
18893;SDS011;9579;49.488;8.226;2022-08-02T21:48:37;2.70;;;2.50;;
18893;SDS011;9579;49.488;8.226;2022-08-02T21:51:24;3.83;;;2.45;;
18893;SDS011;9579;49.488;8.226;2022-08-02T21:54:13;2.63;;;2.42;;
18893;SDS011;9579;49.488;8.226;2022-08-02T21:57:00;3.78;;;2.35;;
18893;SDS011;9579;49.488;8.226;2022-08-02T21:59:47;2.92;;;2.65;;
18893;SDS011;9579;49.488;8.226;2022-08-02T22:02:36;2.50;;;2.30;;
18893;SDS011;9579;49.488;8.226;2022-08-02T22:05:23;2.85;;;2.50;;
18893;SDS011;9579;49.488;8.226;2022-08-02T22:08:10;3.17;;;2.38;;
18893;SDS011;9579;49.488;8.226;2022-08-02T22:10:58;4.10;;;2.50;;
18893;SDS011;9579;49.488;8.226;2022-08-02T22:13:48;2.80;;;2.30;;
18893;SDS011;9579;49.488;8.226;2022-08-02T22:16:35;2.90;;;2.38;;